sensor_id;sensor_type;location;lat;lon;timestamp;P1;durP1;ratioP1;P2;durP2;ratioP2
24585;SDS011;12743;52.262;6.172;2023-11-19T00:00:12;41.13;;;19.63;;
24585;SDS011;12743;52.262;6.172;2023-11-19T00:02:40;39.90;;;15.93;;
24585;SDS011;12743;52.262;6.172;2023-11-19T00:05:09;40.40;;;16.42;;
24585;SDS011;12743;52.262;6.172;2023-11-19T00:07:39;36.47;;;16.83;;
24585;SDS011;12743;52.262;6.172;2023-11-19T00:10:09;33.50;;;15.23;;
24585;SDS011;12743;52.262;6.172;2023-11-19T00:12:43;34.05;;;15.15;;
24585;SDS011;12743;52.262;6.172;2023-11-19T00:15:15;31.53;;;12.83;;
24585;SDS011;12743;52.262;6.172;2023-11-19T00:17:44;29.75;;;13.45;;
24585;SDS011;12743;52.262;6.172;2023-11-19T00:20:19;30.90;;;13.05;;
24585;SDS011;12743;52.262;6.172;2023-11-19T00:22:48;28.00;;;11.82;;
24585;SDS011;12743;52.262;6.172;2023-11-19T00:25:18;26.65;;;11.95;;
24585;SDS011;12743;52.262;6.172;2023-11-19T00:27:45;29.53;;;10.77;;
24585;SDS011;12743;52.262;6.172;2023-11-19T00:30:12;26.27;;;10.50;;
24585;SDS011;12743;52.262;6.172;2023-11-19T00:32:40;27.88;;;11.00;;
24585;SDS011;12743;52.262;6.172;2023-11-19T00:35:07;28.45;;;10.55;;
24585;SDS011;12743;52.262;6.172;2023-11-19T00:37:34;20.77;;;9.48;;
24585;SDS011;12743;52.262;6.172;2023-11-19T00:40:01;27.93;;;9.67;;
24585;SDS011;12743;52.262;6.172;2023-11-19T00:42:32;23.90;;;8.27;;
24585;SDS011;12743;52.262;6.172;2023-11-19T00:44:58;21.65;;;8.32;;
24585;SDS011;12743;52.262;6.172;2023-11-19T00:47:25;24.98;;;8.40;;
24585;SDS011;12743;52.262;6.172;2023-11-19T00:49:52;24.27;;;8.35;;
24585;SDS011;12743;52.262;6.172;2023-11-19T00:52:19;18.83;;;7.50;;
24585;SDS011;12743;52.262;6.172;2023-11-19T00:54:46;23.50;;;8.00;;
24585;SDS011;12743;52.262;6.172;2023-11-19T00:57:12;22.17;;;7.18;;
24585;SDS011;12743;52.262;6.172;2023-11-19T00:59:41;26.75;;;7.20;;
24585;SDS011;12743;52.262;6.172;2023-11-19T01:02:08;23.13;;;7.57;;
24585;SDS011;12743;52.262;6.172;2023-11-19T01:04:35;24.33;;;7.30;;
24585;SDS011;12743;52.262;6.172;2023-11-19T01:07:03;22.80;;;7.05;;
24585;SDS011;12743;52.262;6.172;2023-11-19T01:09:31;23.17;;;7.07;;
24585;SDS011;12743;52.262;6.172;2023-11-19T01:12:04;21.48;;;6.88;;
24585;SDS011;12743;52.262;6.172;2023-11-19T01:14:31;17.25;;;5.78;;
24585;SDS011;12743;52.262;6.172;2023-11-19T01:16:58;18.10;;;6.27;;
24585;SDS011;12743;52.262;6.172;2023-11-19T01:19:24;17.15;;;5.60;;
24585;SDS011;12743;52.262;6.172;2023-11-19T01:21:51;20.92;;;5.47;;
24585;SDS011;12743;52.262;6.172;2023-11-19T01:24:18;17.65;;;5.53;;
24585;SDS011;12743;52.262;6.172;2023-11-19T01:26:45;22.35;;;5.97;;
24585;SDS011;12743;52.262;6.172;2023-11-19T01:29:13;24.83;;;5.70;;
24585;SDS011;12743;52.262;6.172;2023-11-19T01:31:40;20.60;;;5.45;;
24585;SDS011;12743;52.262;6.172;2023-11-19T01:34:08;21.38;;;5.70;;
24585;SDS011;12743;52.262;6.172;2023-11-19T01:36:35;23.08;;;5.45;;
24585;SDS011;12743;52.262;6.172;2023-11-19T01:39:02;21.73;;;5.50;;
24585;SDS011;12743;52.262;6.172;2023-11-19T01:41:34;23.13;;;4.70;;
24585;SDS011;12743;52.262;6.172;2023-11-19T01:44:02;20.42;;;4.97;;
24585;SDS011;12743;52.262;6.172;2023-11-19T01:46:29;22.95;;;5.32;;
24585;SDS011;12743;52.262;6.172;2023-11-19T01:48:59;20.25;;;4.32;;
24585;SDS011;12743;52.262;6.172;2023-11-19T01:51:27;24.95;;;5.65;;
24585;SDS011;12743;52.262;6.172;2023-11-19T01:53:54;24.23;;;4.50;;
24585;SDS011;12743;52.262;6.172;2023-11-19T01:56:21;27.77;;;4.88;;
24585;SDS011;12743;52.262;6.172;2023-11-19T01:58:49;26.92;;;5.45;;
24585;SDS011;12743;52.262;6.172;2023-11-19T02:01:16;22.65;;;4.47;;
24585;SDS011;12743;52.262;6.172;2023-11-19T02:03:43;20.92;;;4.50;;
24585;SDS011;12743;52.262;6.172;2023-11-19T02:06:10;20.90;;;4.37;;
24585;SDS011;12743;52.262;6.172;2023-11-19T02:08:38;24.80;;;4.25;;
24585;SDS011;12743;52.262;6.172;2023-11-19T02:11:05;23.10;;;4.75;;
24585;SDS011;12743;52.262;6.172;2023-11-19T02:13:33;18.17;;;4.07;;
24585;SDS011;12743;52.262;6.172;2023-11-19T02:16:02;23.85;;;4.28;;
24585;SDS011;12743;52.262;6.172;2023-11-19T02:18:30;26.53;;;4.20;;
24585;SDS011;12743;52.262;6.172;2023-11-19T02:20:57;19.40;;;3.90;;
24585;SDS011;12743;52.262;6.172;2023-11-19T02:23:26;19.30;;;4.57;;
24585;SDS011;12743;52.262;6.172;2023-11-19T02:28:41;27.27;;;4.88;;
24585;SDS011;12743;52.262;6.172;2023-11-19T02:31:08;24.73;;;3.80;;
24585;SDS011;12743;52.262;6.172;2023-11-19T02:33:39;24.02;;;3.60;;
24585;SDS011;12743;52.262;6.172;2023-11-19T02:36:07;23.55;;;4.43;;
24585;SDS011;12743;52.262;6.172;2023-11-19T02:38:34;22.98;;;3.15;;
24585;SDS011;12743;52.262;6.172;2023-11-19T02:41:06;27.50;;;4.10;;
24585;SDS011;12743;52.262;6.172;2023-11-19T02:43:33;28.27;;;4.00;;
24585;SDS011;12743;52.262;6.172;2023-11-19T02:46:04;25.08;;;3.55;;
24585;SDS011;12743;52.262;6.172;2023-11-19T02:48:36;30.98;;;5.28;;
24585;SDS011;12743;52.262;6.172;2023-11-19T02:51:05;24.58;;;3.67;;
24585;SDS011;12743;52.262;6.172;2023-11-19T02:53:36;21.50;;;3.45;;
24585;SDS011;12743;52.262;6.172;2023-11-19T02:56:07;25.57;;;4.53;;
24585;SDS011;12743;52.262;6.172;2023-11-19T02:58:52;27.02;;;4.65;;
24585;SDS011;12743;52.262;6.172;2023-11-19T03:01:23;21.13;;;3.80;;
24585;SDS011;12743;52.262;6.172;2023-11-19T03:03:57;20.95;;;3.70;;
24585;SDS011;12743;52.262;6.172;2023-11-19T03:06:25;26.10;;;3.22;;
24585;SDS011;12743;52.262;6.172;2023-11-19T03:08:51;22.77;;;3.73;;
24585;SDS011;12743;52.262;6.172;2023-11-19T03:11:18;22.67;;;4.18;;
24585;SDS011;12743;52.262;6.172;2023-11-19T03:13:45;28.55;;;3.45;;
24585;SDS011;12743;52.262;6.172;2023-11-19T03:16:13;19.98;;;3.17;;
24585;SDS011;12743;52.262;6.172;2023-11-19T03:18:40;27.98;;;4.10;;
24585;SDS011;12743;52.262;6.172;2023-11-19T03:21:06;34.63;;;4.30;;
24585;SDS011;12743;52.262;6.172;2023-11-19T03:23:34;34.25;;;4.55;;
24585;SDS011;12743;52.262;6.172;2023-11-19T03:26:01;32.45;;;4.35;;
24585;SDS011;12743;52.262;6.172;2023-11-19T03:28:32;25.27;;;3.67;;
24585;SDS011;12743;52.262;6.172;2023-11-19T03:30:59;32.40;;;4.38;;
24585;SDS011;12743;52.262;6.172;2023-11-19T03:33:26;19.77;;;3.87;;
24585;SDS011;12743;52.262;6.172;2023-11-19T03:35:54;29.92;;;4.72;;
24585;SDS011;12743;52.262;6.172;2023-11-19T03:38:23;32.97;;;5.18;;
24585;SDS011;12743;52.262;6.172;2023-11-19T03:40:51;27.55;;;4.80;;
24585;SDS011;12743;52.262;6.172;2023-11-19T03:43:17;28.58;;;4.68;;
24585;SDS011;12743;52.262;6.172;2023-11-19T03:45:45;28.07;;;4.80;;
24585;SDS011;12743;52.262;6.172;2023-11-19T03:48:13;29.73;;;3.75;;
24585;SDS011;12743;52.262;6.172;2023-11-19T03:50:42;31.65;;;5.05;;
24585;SDS011;12743;52.262;6.172;2023-11-19T03:53:11;30.95;;;4.72;;
24585;SDS011;12743;52.262;6.172;2023-11-19T03:55:38;30.23;;;4.97;;
24585;SDS011;12743;52.262;6.172;2023-11-19T03:58:04;35.93;;;5.07;;
24585;SDS011;12743;52.262;6.172;2023-11-19T04:00:32;28.65;;;4.85;;
24585;SDS011;12743;52.262;6.172;2023-11-19T04:02:58;25.85;;;3.88;;
24585;SDS011;12743;52.262;6.172;2023-11-19T04:05:25;34.03;;;4.32;;
24585;SDS011;12743;52.262;6.172;2023-11-19T04:07:52;32.10;;;4.57;;
24585;SDS011;12743;52.262;6.172;2023-11-19T04:10:19;31.03;;;5.07;;
24585;SDS011;12743;52.262;6.172;2023-11-19T04:12:46;33.30;;;4.13;;
24585;SDS011;12743;52.262;6.172;2023-11-19T04:15:14;32.45;;;4.20;;
24585;SDS011;12743;52.262;6.172;2023-11-19T04:17:40;38.53;;;5.28;;
24585;SDS011;12743;52.262;6.172;2023-11-19T04:20:07;34.72;;;4.28;;
24585;SDS011;12743;52.262;6.172;2023-11-19T04:22:38;32.73;;;5.03;;
24585;SDS011;12743;52.262;6.172;2023-11-19T04:25:05;30.13;;;4.18;;
24585;SDS011;12743;52.262;6.172;2023-11-19T04:27:32;41.72;;;4.85;;
24585;SDS011;12743;52.262;6.172;2023-11-19T04:29:59;35.05;;;4.25;;
24585;SDS011;12743;52.262;6.172;2023-11-19T04:32:28;33.83;;;5.25;;
24585;SDS011;12743;52.262;6.172;2023-11-19T04:34:55;33.83;;;5.13;;
24585;SDS011;12743;52.262;6.172;2023-11-19T04:37:22;39.75;;;5.00;;
24585;SDS011;12743;52.262;6.172;2023-11-19T04:39:49;36.55;;;4.85;;
24585;SDS011;12743;52.262;6.172;2023-11-19T04:42:15;32.20;;;4.28;;
24585;SDS011;12743;52.262;6.172;2023-11-19T04:44:43;34.50;;;4.15;;
24585;SDS011;12743;52.262;6.172;2023-11-19T04:47:10;33.93;;;4.00;;
24585;SDS011;12743;52.262;6.172;2023-11-19T04:49:40;31.98;;;4.05;;
24585;SDS011;12743;52.262;6.172;2023-11-19T04:52:10;38.83;;;4.88;;
24585;SDS011;12743;52.262;6.172;2023-11-19T04:54:41;35.00;;;4.70;;
24585;SDS011;12743;52.262;6.172;2023-11-19T04:57:09;36.80;;;4.78;;
24585;SDS011;12743;52.262;6.172;2023-11-19T04:59:39;41.80;;;6.00;;
24585;SDS011;12743;52.262;6.172;2023-11-19T05:02:08;39.13;;;5.97;;
24585;SDS011;12743;52.262;6.172;2023-11-19T05:04:35;35.85;;;4.55;;
24585;SDS011;12743;52.262;6.172;2023-11-19T05:07:01;39.78;;;4.57;;
24585;SDS011;12743;52.262;6.172;2023-11-19T05:09:28;31.15;;;4.10;;
24585;SDS011;12743;52.262;6.172;2023-11-19T05:11:56;35.17;;;3.97;;
24585;SDS011;12743;52.262;6.172;2023-11-19T05:14:23;40.28;;;5.20;;
24585;SDS011;12743;52.262;6.172;2023-11-19T05:16:50;33.60;;;4.18;;
24585;SDS011;12743;52.262;6.172;2023-11-19T05:19:17;40.10;;;4.93;;
24585;SDS011;12743;52.262;6.172;2023-11-19T05:21:47;34.72;;;4.65;;
24585;SDS011;12743;52.262;6.172;2023-11-19T05:24:17;41.03;;;5.03;;
24585;SDS011;12743;52.262;6.172;2023-11-19T05:26:44;36.13;;;5.40;;
24585;SDS011;12743;52.262;6.172;2023-11-19T05:29:10;31.48;;;4.18;;
24585;SDS011;12743;52.262;6.172;2023-11-19T05:31:37;41.97;;;5.00;;
24585;SDS011;12743;52.262;6.172;2023-11-19T05:34:05;33.47;;;3.58;;
24585;SDS011;12743;52.262;6.172;2023-11-19T05:36:32;44.23;;;5.30;;
24585;SDS011;12743;52.262;6.172;2023-11-19T05:38:59;33.45;;;4.30;;
24585;SDS011;12743;52.262;6.172;2023-11-19T05:41:26;38.28;;;5.38;;
24585;SDS011;12743;52.262;6.172;2023-11-19T05:43:52;45.28;;;5.03;;
24585;SDS011;12743;52.262;6.172;2023-11-19T05:46:19;40.28;;;4.20;;
24585;SDS011;12743;52.262;6.172;2023-11-19T05:48:47;32.73;;;4.10;;
24585;SDS011;12743;52.262;6.172;2023-11-19T05:51:14;31.23;;;4.15;;
24585;SDS011;12743;52.262;6.172;2023-11-19T05:53:42;38.05;;;4.28;;
24585;SDS011;12743;52.262;6.172;2023-11-19T05:56:09;35.78;;;4.55;;
24585;SDS011;12743;52.262;6.172;2023-11-19T05:58:36;28.88;;;4.85;;
24585;SDS011;12743;52.262;6.172;2023-11-19T06:01:04;46.00;;;5.00;;
24585;SDS011;12743;52.262;6.172;2023-11-19T06:03:33;36.45;;;3.30;;
24585;SDS011;12743;52.262;6.172;2023-11-19T06:06:00;33.50;;;4.43;;
24585;SDS011;12743;52.262;6.172;2023-11-19T06:08:27;34.30;;;4.10;;
24585;SDS011;12743;52.262;6.172;2023-11-19T06:10:53;38.03;;;4.07;;
24585;SDS011;12743;52.262;6.172;2023-11-19T06:13:20;40.30;;;4.07;;
24585;SDS011;12743;52.262;6.172;2023-11-19T06:15:50;37.85;;;4.07;;
24585;SDS011;12743;52.262;6.172;2023-11-19T06:18:17;30.58;;;4.43;;
24585;SDS011;12743;52.262;6.172;2023-11-19T06:20:47;31.08;;;4.25;;
24585;SDS011;12743;52.262;6.172;2023-11-19T06:23:14;36.25;;;3.83;;
24585;SDS011;12743;52.262;6.172;2023-11-19T06:25:40;36.67;;;4.23;;
24585;SDS011;12743;52.262;6.172;2023-11-19T06:28:07;38.47;;;4.70;;
24585;SDS011;12743;52.262;6.172;2023-11-19T06:30:34;37.70;;;4.38;;
24585;SDS011;12743;52.262;6.172;2023-11-19T06:33:02;39.35;;;3.75;;
24585;SDS011;12743;52.262;6.172;2023-11-19T06:35:33;34.78;;;4.47;;
24585;SDS011;12743;52.262;6.172;2023-11-19T06:38:03;37.90;;;4.37;;
24585;SDS011;12743;52.262;6.172;2023-11-19T06:40:33;35.97;;;4.18;;
24585;SDS011;12743;52.262;6.172;2023-11-19T06:43:01;30.73;;;3.63;;
24585;SDS011;12743;52.262;6.172;2023-11-19T06:45:30;36.42;;;5.65;;
24585;SDS011;12743;52.262;6.172;2023-11-19T06:47:57;31.63;;;5.47;;
24585;SDS011;12743;52.262;6.172;2023-11-19T06:50:25;37.63;;;4.70;;
24585;SDS011;12743;52.262;6.172;2023-11-19T06:52:51;36.42;;;4.35;;
24585;SDS011;12743;52.262;6.172;2023-11-19T06:55:18;39.15;;;3.78;;
24585;SDS011;12743;52.262;6.172;2023-11-19T06:57:45;34.75;;;5.43;;
24585;SDS011;12743;52.262;6.172;2023-11-19T07:00:12;37.65;;;4.93;;
24585;SDS011;12743;52.262;6.172;2023-11-19T07:02:38;34.83;;;4.60;;
24585;SDS011;12743;52.262;6.172;2023-11-19T07:05:06;37.35;;;3.90;;
24585;SDS011;12743;52.262;6.172;2023-11-19T07:07:34;40.90;;;4.47;;
24585;SDS011;12743;52.262;6.172;2023-11-19T07:10:02;31.40;;;4.80;;
24585;SDS011;12743;52.262;6.172;2023-11-19T07:12:30;32.20;;;4.22;;
24585;SDS011;12743;52.262;6.172;2023-11-19T07:14:57;33.57;;;4.40;;
24585;SDS011;12743;52.262;6.172;2023-11-19T07:17:24;34.70;;;4.65;;
24585;SDS011;12743;52.262;6.172;2023-11-19T07:19:51;36.17;;;3.90;;
24585;SDS011;12743;52.262;6.172;2023-11-19T07:22:17;40.70;;;4.28;;
24585;SDS011;12743;52.262;6.172;2023-11-19T07:24:44;36.63;;;4.93;;
24585;SDS011;12743;52.262;6.172;2023-11-19T07:27:11;39.13;;;5.47;;
24585;SDS011;12743;52.262;6.172;2023-11-19T07:29:37;35.75;;;4.70;;
24585;SDS011;12743;52.262;6.172;2023-11-19T07:32:04;38.35;;;3.80;;
24585;SDS011;12743;52.262;6.172;2023-11-19T07:34:31;33.30;;;4.55;;
24585;SDS011;12743;52.262;6.172;2023-11-19T07:36:58;38.45;;;5.50;;
24585;SDS011;12743;52.262;6.172;2023-11-19T07:39:30;41.70;;;4.50;;
24585;SDS011;12743;52.262;6.172;2023-11-19T07:41:56;40.47;;;5.03;;
24585;SDS011;12743;52.262;6.172;2023-11-19T07:44:24;38.85;;;4.85;;
24585;SDS011;12743;52.262;6.172;2023-11-19T07:46:51;35.28;;;3.95;;
24585;SDS011;12743;52.262;6.172;2023-11-19T07:49:18;34.35;;;4.68;;
24585;SDS011;12743;52.262;6.172;2023-11-19T07:51:44;42.20;;;5.03;;
24585;SDS011;12743;52.262;6.172;2023-11-19T07:54:11;34.03;;;4.40;;
24585;SDS011;12743;52.262;6.172;2023-11-19T07:56:37;38.08;;;5.07;;
24585;SDS011;12743;52.262;6.172;2023-11-19T07:59:04;36.40;;;4.38;;
24585;SDS011;12743;52.262;6.172;2023-11-19T08:01:31;40.83;;;5.78;;
24585;SDS011;12743;52.262;6.172;2023-11-19T08:03:58;28.93;;;3.30;;
24585;SDS011;12743;52.262;6.172;2023-11-19T08:06:26;46.30;;;4.68;;
24585;SDS011;12743;52.262;6.172;2023-11-19T08:08:52;34.78;;;4.78;;
24585;SDS011;12743;52.262;6.172;2023-11-19T08:11:19;34.78;;;4.10;;
24585;SDS011;12743;52.262;6.172;2023-11-19T08:13:46;40.67;;;5.03;;
24585;SDS011;12743;52.262;6.172;2023-11-19T08:16:13;39.60;;;5.97;;
24585;SDS011;12743;52.262;6.172;2023-11-19T08:18:43;36.55;;;4.88;;
24585;SDS011;12743;52.262;6.172;2023-11-19T08:21:10;39.53;;;5.53;;
24585;SDS011;12743;52.262;6.172;2023-11-19T08:23:37;39.42;;;4.30;;
24585;SDS011;12743;52.262;6.172;2023-11-19T08:26:05;28.08;;;3.95;;
24585;SDS011;12743;52.262;6.172;2023-11-19T08:28:31;38.97;;;3.73;;
24585;SDS011;12743;52.262;6.172;2023-11-19T08:31:00;32.40;;;3.92;;
24585;SDS011;12743;52.262;6.172;2023-11-19T08:33:27;33.95;;;3.58;;
24585;SDS011;12743;52.262;6.172;2023-11-19T08:35:54;42.08;;;3.97;;
24585;SDS011;12743;52.262;6.172;2023-11-19T08:38:21;35.03;;;4.28;;
24585;SDS011;12743;52.262;6.172;2023-11-19T08:40:50;30.53;;;3.93;;
24585;SDS011;12743;52.262;6.172;2023-11-19T08:43:18;34.80;;;4.05;;
24585;SDS011;12743;52.262;6.172;2023-11-19T08:45:44;34.30;;;3.38;;
24585;SDS011;12743;52.262;6.172;2023-11-19T08:48:11;35.72;;;4.72;;
24585;SDS011;12743;52.262;6.172;2023-11-19T08:50:38;37.97;;;4.10;;
24585;SDS011;12743;52.262;6.172;2023-11-19T08:53:05;31.63;;;3.50;;
24585;SDS011;12743;52.262;6.172;2023-11-19T08:55:33;39.53;;;5.82;;
24585;SDS011;12743;52.262;6.172;2023-11-19T08:58:00;33.33;;;3.75;;
24585;SDS011;12743;52.262;6.172;2023-11-19T09:00:27;39.22;;;4.88;;
24585;SDS011;12743;52.262;6.172;2023-11-19T09:02:53;33.78;;;4.90;;
24585;SDS011;12743;52.262;6.172;2023-11-19T09:05:20;32.57;;;4.37;;
24585;SDS011;12743;52.262;6.172;2023-11-19T09:07:47;43.38;;;4.35;;
24585;SDS011;12743;52.262;6.172;2023-11-19T09:10:15;38.58;;;4.45;;
24585;SDS011;12743;52.262;6.172;2023-11-19T09:12:42;32.22;;;4.35;;
24585;SDS011;12743;52.262;6.172;2023-11-19T09:15:09;33.65;;;4.32;;
24585;SDS011;12743;52.262;6.172;2023-11-19T09:17:37;36.27;;;5.37;;
24585;SDS011;12743;52.262;6.172;2023-11-19T09:20:04;35.25;;;4.80;;
24585;SDS011;12743;52.262;6.172;2023-11-19T09:22:31;36.78;;;4.55;;
24585;SDS011;12743;52.262;6.172;2023-11-19T09:24:57;32.63;;;4.63;;
24585;SDS011;12743;52.262;6.172;2023-11-19T09:27:26;33.95;;;4.65;;
24585;SDS011;12743;52.262;6.172;2023-11-19T09:29:54;35.07;;;5.43;;
24585;SDS011;12743;52.262;6.172;2023-11-19T09:32:24;32.17;;;3.80;;
24585;SDS011;12743;52.262;6.172;2023-11-19T09:34:51;36.53;;;5.45;;
24585;SDS011;12743;52.262;6.172;2023-11-19T09:37:18;34.53;;;4.57;;
24585;SDS011;12743;52.262;6.172;2023-11-19T09:39:48;33.85;;;4.75;;
24585;SDS011;12743;52.262;6.172;2023-11-19T09:42:14;33.47;;;3.83;;
24585;SDS011;12743;52.262;6.172;2023-11-19T09:44:42;32.55;;;4.70;;
24585;SDS011;12743;52.262;6.172;2023-11-19T09:47:10;28.00;;;3.80;;
24585;SDS011;12743;52.262;6.172;2023-11-19T09:49:38;31.60;;;4.95;;
24585;SDS011;12743;52.262;6.172;2023-11-19T09:52:05;27.15;;;3.70;;
24585;SDS011;12743;52.262;6.172;2023-11-19T09:54:31;31.33;;;4.00;;
24585;SDS011;12743;52.262;6.172;2023-11-19T09:56:59;39.38;;;5.18;;
24585;SDS011;12743;52.262;6.172;2023-11-19T09:59:30;39.38;;;4.60;;
24585;SDS011;12743;52.262;6.172;2023-11-19T10:01:57;27.35;;;3.72;;
24585;SDS011;12743;52.262;6.172;2023-11-19T10:04:24;31.15;;;4.78;;
24585;SDS011;12743;52.262;6.172;2023-11-19T10:06:52;29.00;;;4.23;;
24585;SDS011;12743;52.262;6.172;2023-11-19T10:09:19;30.20;;;3.28;;
24585;SDS011;12743;52.262;6.172;2023-11-19T10:11:45;27.40;;;3.85;;
24585;SDS011;12743;52.262;6.172;2023-11-19T10:14:12;27.23;;;3.67;;
24585;SDS011;12743;52.262;6.172;2023-11-19T10:16:39;30.15;;;5.13;;
24585;SDS011;12743;52.262;6.172;2023-11-19T10:19:07;26.77;;;3.57;;
24585;SDS011;12743;52.262;6.172;2023-11-19T10:21:33;28.88;;;3.85;;
24585;SDS011;12743;52.262;6.172;2023-11-19T10:24:00;32.75;;;3.60;;
24585;SDS011;12743;52.262;6.172;2023-11-19T10:26:27;27.45;;;4.22;;
24585;SDS011;12743;52.262;6.172;2023-11-19T10:28:55;27.88;;;3.70;;
24585;SDS011;12743;52.262;6.172;2023-11-19T10:31:22;35.33;;;4.40;;
24585;SDS011;12743;52.262;6.172;2023-11-19T10:33:51;27.50;;;3.20;;
24585;SDS011;12743;52.262;6.172;2023-11-19T10:36:18;33.78;;;3.95;;
24585;SDS011;12743;52.262;6.172;2023-11-19T10:38:55;28.63;;;3.47;;
24585;SDS011;12743;52.262;6.172;2023-11-19T10:41:29;25.33;;;4.20;;
24585;SDS011;12743;52.262;6.172;2023-11-19T10:44:00;28.53;;;3.33;;
24585;SDS011;12743;52.262;6.172;2023-11-19T10:46:40;27.65;;;3.65;;
24585;SDS011;12743;52.262;6.172;2023-11-19T10:49:07;26.58;;;3.88;;
24585;SDS011;12743;52.262;6.172;2023-11-19T10:51:34;33.58;;;4.20;;
24585;SDS011;12743;52.262;6.172;2023-11-19T10:54:05;25.98;;;3.65;;
24585;SDS011;12743;52.262;6.172;2023-11-19T10:56:33;29.40;;;3.83;;
24585;SDS011;12743;52.262;6.172;2023-11-19T10:59:00;31.52;;;3.53;;
24585;SDS011;12743;52.262;6.172;2023-11-19T11:01:27;31.50;;;3.13;;
24585;SDS011;12743;52.262;6.172;2023-11-19T11:04:00;34.10;;;3.72;;
24585;SDS011;12743;52.262;6.172;2023-11-19T11:06:28;19.88;;;3.13;;
24585;SDS011;12743;52.262;6.172;2023-11-19T11:08:55;25.43;;;4.10;;
24585;SDS011;12743;52.262;6.172;2023-11-19T11:11:22;26.60;;;2.75;;
24585;SDS011;12743;52.262;6.172;2023-11-19T11:13:52;27.38;;;3.55;;
24585;SDS011;12743;52.262;6.172;2023-11-19T11:16:19;29.00;;;4.55;;
24585;SDS011;12743;52.262;6.172;2023-11-19T11:18:47;29.27;;;3.72;;
24585;SDS011;12743;52.262;6.172;2023-11-19T11:21:17;27.43;;;3.80;;
24585;SDS011;12743;52.262;6.172;2023-11-19T11:32:01;30.33;;;4.30;;
24585;SDS011;12743;52.262;6.172;2023-11-19T11:37:32;33.75;;;3.90;;
24585;SDS011;12743;52.262;6.172;2023-11-19T11:40:06;27.60;;;3.40;;
24585;SDS011;12743;52.262;6.172;2023-11-19T11:42:37;26.10;;;4.15;;
24585;SDS011;12743;52.262;6.172;2023-11-19T11:50:19;30.08;;;3.67;;
24585;SDS011;12743;52.262;6.172;2023-11-19T11:57:52;26.60;;;3.28;;
24585;SDS011;12743;52.262;6.172;2023-11-19T12:00:22;24.13;;;3.33;;
24585;SDS011;12743;52.262;6.172;2023-11-19T12:02:59;27.70;;;3.95;;
24585;SDS011;12743;52.262;6.172;2023-11-19T12:05:26;24.35;;;3.22;;
24585;SDS011;12743;52.262;6.172;2023-11-19T12:07:54;24.27;;;2.90;;
24585;SDS011;12743;52.262;6.172;2023-11-19T12:10:21;26.33;;;4.15;;
24585;SDS011;12743;52.262;6.172;2023-11-19T12:12:53;28.17;;;3.57;;
24585;SDS011;12743;52.262;6.172;2023-11-19T12:15:19;23.50;;;2.95;;
24585;SDS011;12743;52.262;6.172;2023-11-19T12:17:51;27.45;;;3.30;;
24585;SDS011;12743;52.262;6.172;2023-11-19T12:20:19;25.65;;;3.10;;
24585;SDS011;12743;52.262;6.172;2023-11-19T12:22:52;33.97;;;3.80;;
24585;SDS011;12743;52.262;6.172;2023-11-19T12:25:20;34.13;;;4.10;;
24585;SDS011;12743;52.262;6.172;2023-11-19T12:27:47;26.63;;;3.22;;
24585;SDS011;12743;52.262;6.172;2023-11-19T12:30:22;25.85;;;3.42;;
24585;SDS011;12743;52.262;6.172;2023-11-19T12:32:53;25.98;;;3.88;;
24585;SDS011;12743;52.262;6.172;2023-11-19T12:35:20;29.75;;;3.72;;
24585;SDS011;12743;52.262;6.172;2023-11-19T12:37:48;29.30;;;4.40;;
24585;SDS011;12743;52.262;6.172;2023-11-19T12:42:51;29.95;;;4.07;;
24585;SDS011;12743;52.262;6.172;2023-11-19T12:45:19;27.52;;;3.38;;
24585;SDS011;12743;52.262;6.172;2023-11-19T12:47:47;28.83;;;3.53;;
24585;SDS011;12743;52.262;6.172;2023-11-19T12:50:16;20.47;;;2.87;;
24585;SDS011;12743;52.262;6.172;2023-11-19T12:52:56;29.02;;;3.97;;
24585;SDS011;12743;52.262;6.172;2023-11-19T12:55:25;36.22;;;3.30;;
24585;SDS011;12743;52.262;6.172;2023-11-19T12:57:56;33.38;;;3.70;;
24585;SDS011;12743;52.262;6.172;2023-11-19T13:01:00;25.95;;;3.28;;
24585;SDS011;12743;52.262;6.172;2023-11-19T13:03:32;20.37;;;2.80;;
24585;SDS011;12743;52.262;6.172;2023-11-19T13:06:03;22.05;;;2.80;;
24585;SDS011;12743;52.262;6.172;2023-11-19T13:08:49;21.20;;;2.55;;
24585;SDS011;12743;52.262;6.172;2023-11-19T13:11:34;24.48;;;3.55;;
24585;SDS011;12743;52.262;6.172;2023-11-19T13:14:03;28.00;;;2.80;;
24585;SDS011;12743;52.262;6.172;2023-11-19T13:16:31;20.83;;;3.13;;
24585;SDS011;12743;52.262;6.172;2023-11-19T13:18:58;22.92;;;2.30;;
24585;SDS011;12743;52.262;6.172;2023-11-19T13:21:26;26.65;;;4.38;;
24585;SDS011;12743;52.262;6.172;2023-11-19T13:23:53;18.50;;;2.85;;
24585;SDS011;12743;52.262;6.172;2023-11-19T13:26:20;18.58;;;2.63;;
24585;SDS011;12743;52.262;6.172;2023-11-19T13:28:46;20.50;;;2.67;;
24585;SDS011;12743;52.262;6.172;2023-11-19T13:31:13;18.48;;;2.80;;
24585;SDS011;12743;52.262;6.172;2023-11-19T13:33:41;21.75;;;2.92;;
24585;SDS011;12743;52.262;6.172;2023-11-19T13:36:08;24.55;;;2.80;;
24585;SDS011;12743;52.262;6.172;2023-11-19T13:38:36;20.60;;;2.10;;
24585;SDS011;12743;52.262;6.172;2023-11-19T13:41:03;22.27;;;2.67;;
24585;SDS011;12743;52.262;6.172;2023-11-19T13:43:35;20.42;;;2.92;;
24585;SDS011;12743;52.262;6.172;2023-11-19T13:46:02;25.05;;;3.33;;
24585;SDS011;12743;52.262;6.172;2023-11-19T13:48:28;21.90;;;2.85;;
24585;SDS011;12743;52.262;6.172;2023-11-19T13:50:55;18.42;;;2.47;;
24585;SDS011;12743;52.262;6.172;2023-11-19T13:53:22;23.37;;;2.47;;
24585;SDS011;12743;52.262;6.172;2023-11-19T13:55:50;23.23;;;3.05;;
24585;SDS011;12743;52.262;6.172;2023-11-19T13:58:16;25.23;;;3.05;;
24585;SDS011;12743;52.262;6.172;2023-11-19T14:00:44;19.73;;;3.15;;
24585;SDS011;12743;52.262;6.172;2023-11-19T14:03:11;17.88;;;2.17;;
24585;SDS011;12743;52.262;6.172;2023-11-19T14:05:38;18.87;;;2.70;;
24585;SDS011;12743;52.262;6.172;2023-11-19T14:08:05;24.25;;;3.08;;
24585;SDS011;12743;52.262;6.172;2023-11-19T14:10:51;23.17;;;3.05;;
24585;SDS011;12743;52.262;6.172;2023-11-19T14:13:17;33.30;;;3.85;;
24585;SDS011;12743;52.262;6.172;2023-11-19T14:15:44;24.35;;;3.47;;
24585;SDS011;12743;52.262;6.172;2023-11-19T14:18:15;22.00;;;3.47;;
24585;SDS011;12743;52.262;6.172;2023-11-19T14:20:41;20.02;;;2.70;;
24585;SDS011;12743;52.262;6.172;2023-11-19T14:23:09;20.85;;;2.95;;
24585;SDS011;12743;52.262;6.172;2023-11-19T14:25:35;22.55;;;2.97;;
24585;SDS011;12743;52.262;6.172;2023-11-19T14:28:02;29.55;;;3.53;;
24585;SDS011;12743;52.262;6.172;2023-11-19T14:30:31;19.60;;;2.80;;
24585;SDS011;12743;52.262;6.172;2023-11-19T14:32:58;22.73;;;2.80;;
24585;SDS011;12743;52.262;6.172;2023-11-19T14:35:25;28.63;;;3.88;;
24585;SDS011;12743;52.262;6.172;2023-11-19T14:37:52;20.90;;;3.38;;
24585;SDS011;12743;52.262;6.172;2023-11-19T14:40:19;21.63;;;2.78;;
24585;SDS011;12743;52.262;6.172;2023-11-19T14:42:45;21.03;;;2.60;;
24585;SDS011;12743;52.262;6.172;2023-11-19T14:45:12;26.85;;;2.53;;
24585;SDS011;12743;52.262;6.172;2023-11-19T14:47:39;28.67;;;3.00;;
24585;SDS011;12743;52.262;6.172;2023-11-19T14:50:06;21.30;;;2.70;;
24585;SDS011;12743;52.262;6.172;2023-11-19T14:52:34;25.83;;;3.92;;
24585;SDS011;12743;52.262;6.172;2023-11-19T14:55:02;24.40;;;2.90;;
24585;SDS011;12743;52.262;6.172;2023-11-19T14:57:29;26.65;;;2.95;;
24585;SDS011;12743;52.262;6.172;2023-11-19T14:59:56;15.05;;;2.53;;
24585;SDS011;12743;52.262;6.172;2023-11-19T15:02:22;15.80;;;2.47;;
24585;SDS011;12743;52.262;6.172;2023-11-19T15:04:49;17.00;;;2.70;;